createdAt,value
2023-04-29T00:00:58.007Z,70.12
2023-04-29T00:01:57.893Z,70.14
2023-04-29T00:02:57.982Z,70.04
2023-04-29T00:03:58.067Z,69.96
2023-04-29T00:04:58.039Z,69.96
2023-04-29T00:05:58.083Z,69.94
2023-04-29T00:06:57.876Z,70.00
2023-04-29T00:07:57.841Z,70.11
2023-04-29T00:08:57.856Z,70.18
2023-04-29T00:09:57.857Z,70.10
2023-04-29T00:10:57.927Z,70.13
2023-04-29T00:11:57.881Z,70.03
2023-04-29T00:12:57.906Z,69.93
2023-04-29T00:13:57.910Z,69.88
2023-04-29T00:14:57.919Z,69.88
2023-04-29T00:15:58.414Z,69.88
2023-04-29T00:16:57.968Z,69.86
2023-04-29T00:17:57.973Z,69.89
2023-04-29T00:18:58.046Z,69.85
2023-04-29T00:19:57.993Z,70.01
2023-04-29T00:20:58.447Z,70.06
2023-04-29T00:21:58.012Z,70.16
2023-04-29T00:22:58.010Z,70.18
2023-04-29T00:23:58.026Z,70.02
2023-04-29T00:24:58.001Z,70.15
2023-04-29T00:25:58.006Z,70.32
2023-04-29T00:26:57.985Z,70.25
2023-04-29T00:27:57.982Z,70.18
2023-04-29T00:28:58.012Z,70.06
2023-04-29T00:29:57.993Z,70.01
2023-04-29T00:30:58.139Z,69.96
2023-04-29T00:31:57.984Z,69.88
2023-04-29T00:32:58.047Z,69.83
2023-04-29T00:33:58.070Z,69.85
2023-04-29T00:34:58.083Z,69.83
2023-04-29T00:35:58.486Z,69.86
2023-04-29T00:36:58.155Z,69.81
2023-04-29T00:37:58.196Z,69.76
2023-04-29T00:38:58.192Z,69.73
2023-04-29T00:39:58.216Z,70.00
2023-04-29T00:40:58.205Z,69.95
2023-04-29T00:41:58.231Z,69.94
2023-04-29T00:42:58.199Z,69.75
2023-04-29T00:43:58.256Z,69.65
2023-04-29T00:44:58.225Z,69.67
2023-04-29T00:45:58.241Z,69.66
2023-04-29T00:46:58.218Z,69.91
2023-04-29T00:47:58.318Z,69.86
2023-04-29T00:48:58.274Z,69.89
2023-04-29T00:49:58.242Z,69.74
2023-04-29T00:50:58.414Z,69.64
2023-04-29T00:51:58.245Z,69.51
2023-04-29T00:52:58.232Z,69.43
2023-04-29T00:53:58.244Z,69.35
2023-04-29T00:54:58.215Z,69.39
2023-04-29T00:55:58.404Z,69.46
2023-04-29T00:56:58.241Z,69.41
2023-04-29T00:57:58.300Z,69.51
2023-04-29T00:58:58.301Z,69.56
2023-04-29T00:59:58.293Z,69.42
2023-04-29T01:00:58.363Z,69.40
2023-04-29T01:01:58.451Z,69.44
2023-04-29T01:02:58.541Z,69.49
2023-04-29T01:03:58.657Z,69.42
2023-04-29T01:04:59.458Z,69.66
2023-04-29T01:05:58.960Z,69.55
2023-04-29T01:06:58.614Z,69.59
2023-04-29T01:07:58.689Z,69.95
2023-04-29T01:08:58.715Z,70.12
2023-04-29T01:09:58.705Z,70.08
2023-04-29T01:10:58.936Z,70.13
2023-04-29T01:11:58.794Z,69.99
2023-04-29T01:12:58.797Z,70.05
2023-04-29T01:13:58.846Z,70.15
2023-04-29T01:14:58.837Z,70.44
2023-04-29T01:15:58.965Z,70.66
2023-04-29T01:16:58.878Z,70.72
2023-04-29T01:17:58.907Z,70.70
2023-04-29T01:18:58.890Z,70.65
2023-04-29T01:19:58.842Z,70.44
2023-04-29T01:20:58.859Z,70.63
2023-04-29T01:21:58.938Z,70.49
2023-04-29T01:22:58.978Z,70.30
2023-04-29T01:23:58.881Z,70.10
2023-04-29T01:24:58.885Z,69.97
2023-04-29T01:25:58.904Z,69.90
2023-04-29T01:26:58.864Z,69.90
2023-04-29T01:27:58.900Z,69.93
2023-04-29T01:28:58.892Z,69.94
2023-04-29T01:29:58.885Z,69.96
2023-04-29T01:30:58.938Z,69.86
2023-04-29T01:31:58.941Z,70.01
2023-04-29T01:32:58.892Z,70.17
2023-04-29T01:33:58.881Z,70.07
2023-04-29T01:34:58.903Z,69.98
2023-04-29T01:35:58.879Z,69.94
2023-04-29T01:36:58.906Z,69.94
2023-04-29T01:37:58.894Z,69.91
2023-04-29T01:38:58.879Z,69.79
2023-04-29T01:39:58.858Z,69.68
2023-04-29T01:40:58.890Z,69.69
2023-04-29T01:41:58.897Z,69.70
2023-04-29T01:42:58.866Z,69.64
2023-04-29T01:43:58.889Z,69.55
2023-04-29T01:44:58.846Z,69.49
2023-04-29T01:45:58.861Z,69.52
2023-04-29T01:46:58.982Z,69.53
2023-04-29T01:47:59.001Z,69.65
2023-04-29T01:48:58.898Z,69.70
2023-04-29T01:49:58.881Z,69.68
2023-04-29T01:50:58.898Z,69.60
2023-04-29T01:51:58.856Z,69.59
2023-04-29T01:52:58.904Z,69.82
2023-04-29T01:53:58.872Z,69.90
2023-04-29T01:54:58.873Z,69.94
2023-04-29T01:55:58.891Z,70.01
2023-04-29T01:56:58.939Z,70.12
2023-04-29T01:57:58.904Z,70.12
2023-04-29T01:58:58.916Z,70.07
2023-04-29T01:59:58.914Z,69.96
2023-04-29T02:00:58.938Z,69.93
2023-04-29T02:01:59.027Z,70.01
2023-04-29T02:02:59.037Z,69.86
2023-04-29T02:03:59.109Z,69.96
2023-04-29T02:04:59.260Z,69.92
2023-04-29T02:05:58.909Z,69.87
2023-04-29T02:06:58.922Z,69.86
2023-04-29T02:07:58.945Z,69.90
2023-04-29T02:08:58.953Z,70.07
2023-04-29T02:09:58.946Z,70.06
2023-04-29T02:10:59.008Z,70.08
2023-04-29T02:11:58.965Z,69.96
2023-04-29T02:12:58.930Z,69.98
2023-04-29T02:13:58.956Z,70.07
2023-04-29T02:14:58.963Z,70.01
2023-04-29T02:15:59.006Z,70.22
2023-04-29T02:16:59.001Z,70.22
2023-04-29T02:17:59.050Z,70.20
2023-04-29T02:18:58.982Z,70.14
2023-04-29T02:19:59.008Z,70.13
2023-04-29T02:20:59.037Z,70.02
2023-04-29T02:21:59.077Z,69.97
2023-04-29T02:22:59.049Z,70.04
2023-04-29T02:23:59.083Z,70.01
2023-04-29T02:24:59.084Z,70.00
2023-04-29T02:25:59.122Z,70.07
2023-04-29T02:26:59.131Z,70.18
2023-04-29T02:27:59.147Z,69.99
2023-04-29T02:28:59.123Z,69.92
2023-04-29T02:29:59.207Z,69.89
2023-04-29T02:30:59.166Z,69.89
2023-04-29T02:31:59.203Z,69.89
2023-04-29T02:32:59.217Z,69.81
2023-04-29T02:33:59.182Z,69.69
2023-04-29T02:34:59.223Z,69.82
2023-04-29T02:35:59.198Z,69.86
2023-04-29T02:36:59.481Z,69.94
2023-04-29T02:37:59.236Z,69.88
2023-04-29T02:38:59.246Z,69.85
2023-04-29T02:39:59.229Z,69.65
2023-04-29T02:40:59.248Z,69.68
2023-04-29T02:41:59.275Z,69.65
2023-04-29T02:42:59.295Z,69.70
2023-04-29T02:43:59.291Z,69.63
2023-04-29T02:44:59.337Z,69.56
2023-04-29T02:45:59.324Z,69.68
2023-04-29T02:46:59.316Z,69.60
2023-04-29T02:47:59.357Z,69.63
2023-04-29T02:48:59.317Z,69.69
2023-04-29T02:49:59.382Z,69.64
2023-04-29T02:50:59.369Z,69.69
2023-04-29T02:51:59.410Z,69.63
2023-04-29T02:52:59.422Z,69.79
2023-04-29T02:53:59.428Z,70.03
2023-04-29T02:54:59.510Z,70.23
2023-04-29T02:55:59.504Z,70.27
2023-04-29T02:56:59.524Z,70.56
2023-04-29T02:57:59.554Z,70.51
2023-04-29T02:58:59.547Z,70.45
2023-04-29T02:59:59.632Z,70.20
2023-04-29T03:00:59.725Z,70.17
2023-04-29T03:01:59.993Z,70.03
2023-04-29T03:02:59.789Z,69.89
2023-04-29T03:03:59.882Z,69.87
2023-04-29T03:04:59.794Z,69.89
2023-04-29T03:05:59.823Z,69.91
2023-04-29T03:06:59.862Z,69.87
2023-04-29T03:07:59.879Z,69.79
2023-04-29T03:08:59.908Z,69.80
2023-04-29T03:09:59.924Z,69.78
2023-04-29T03:10:59.940Z,69.73
2023-04-29T03:12:00.025Z,69.64
2023-04-29T03:12:59.977Z,69.85
2023-04-29T03:14:00.061Z,69.81
2023-04-29T03:15:00.070Z,69.71
2023-04-29T03:16:00.099Z,69.61
2023-04-29T03:17:00.633Z,69.56
2023-04-29T03:18:00.184Z,69.70
2023-04-29T03:19:00.185Z,69.85
2023-04-29T03:20:00.226Z,70.11
2023-04-29T03:21:00.239Z,70.11
2023-04-29T03:22:00.504Z,70.11
2023-04-29T03:23:00.303Z,69.99
2023-04-29T03:24:00.347Z,69.94
2023-04-29T03:25:00.359Z,70.14
2023-04-29T03:26:00.480Z,70.25
2023-04-29T03:27:00.440Z,70.18
2023-04-29T03:28:00.446Z,70.15
2023-04-29T03:29:00.483Z,69.95
2023-04-29T03:30:00.516Z,69.80
2023-04-29T03:31:00.575Z,69.78
2023-04-29T03:32:00.576Z,69.87
2023-04-29T03:33:00.625Z,69.64
2023-04-29T03:34:00.630Z,69.54
2023-04-29T03:35:00.704Z,69.49
2023-04-29T03:36:00.697Z,69.49
2023-04-29T03:37:00.742Z,69.40
2023-04-29T03:38:00.790Z,69.36
2023-04-29T03:39:00.790Z,69.41
2023-04-29T03:40:00.824Z,69.43
2023-04-29T03:41:00.828Z,69.52
2023-04-29T03:42:00.839Z,69.52
2023-04-29T03:43:00.856Z,69.51
2023-04-29T03:44:00.945Z,69.55
2023-04-29T03:45:00.885Z,69.52
2023-04-29T03:46:00.947Z,69.31
2023-04-29T03:47:00.968Z,69.23
2023-04-29T03:48:00.972Z,69.21
2023-04-29T03:49:00.991Z,69.36
2023-04-29T03:50:01.013Z,69.63
2023-04-29T03:51:01.044Z,69.68
2023-04-29T03:52:01.032Z,69.63
2023-04-29T03:53:01.067Z,69.51
2023-04-29T03:54:01.132Z,69.51
2023-04-29T03:55:01.151Z,69.41
2023-04-29T03:56:01.134Z,69.49
2023-04-29T03:57:01.147Z,69.56
2023-04-29T03:58:01.185Z,69.43
2023-04-29T03:59:01.308Z,69.56
2023-04-29T04:00:01.206Z,69.41
2023-04-29T04:01:01.225Z,69.40
2023-04-29T04:02:01.380Z,69.46
2023-04-29T04:03:03.412Z,69.54
2023-04-29T04:04:01.466Z,69.57
2023-04-29T04:05:01.315Z,69.62
2023-04-29T04:06:01.246Z,69.61
2023-04-29T04:07:01.261Z,69.60
2023-04-29T04:08:01.261Z,69.52
2023-04-29T04:09:01.263Z,69.56
2023-04-29T04:10:01.215Z,69.85
2023-04-29T04:11:01.239Z,69.83
2023-04-29T04:12:01.208Z,69.85
2023-04-29T04:13:01.185Z,69.83
2023-04-29T04:14:01.186Z,69.88
2023-04-29T04:15:01.201Z,69.67
2023-04-29T04:16:01.315Z,69.49
2023-04-29T04:17:01.187Z,69.48
2023-04-29T04:18:01.232Z,69.59
2023-04-29T04:19:01.152Z,69.69
2023-04-29T04:20:01.147Z,69.60
2023-04-29T04:21:01.127Z,69.68
2023-04-29T04:22:01.161Z,69.69
2023-04-29T04:23:01.105Z,69.64
2023-04-29T04:24:01.110Z,69.50
2023-04-29T04:25:01.129Z,69.58
2023-04-29T04:26:01.129Z,69.51
2023-04-29T04:27:01.089Z,69.38
2023-04-29T04:28:01.093Z,69.39
2023-04-29T04:29:01.094Z,69.29
2023-04-29T04:30:01.080Z,69.42
2023-04-29T04:31:01.053Z,69.36
2023-04-29T04:32:01.096Z,69.31
2023-04-29T04:33:01.098Z,69.48
2023-04-29T04:34:01.105Z,69.78
2023-04-29T04:35:01.046Z,69.78
2023-04-29T04:36:01.045Z,69.81
2023-04-29T04:37:01.049Z,69.99
2023-04-29T04:38:01.045Z,69.91
2023-04-29T04:39:01.036Z,69.83
2023-04-29T04:40:01.038Z,69.73
2023-04-29T04:41:01.044Z,69.71
2023-04-29T04:42:01.044Z,69.57
2023-04-29T04:43:00.983Z,69.58
2023-04-29T04:44:01.010Z,69.34
2023-04-29T04:45:01.012Z,69.29
2023-04-29T04:46:01.011Z,69.42
2023-04-29T04:47:01.019Z,69.30
2023-04-29T04:48:01.018Z,69.27
2023-04-29T04:49:00.927Z,69.21
2023-04-29T04:50:00.967Z,69.11
2023-04-29T04:51:00.931Z,69.07
2023-04-29T04:52:01.001Z,69.05
2023-04-29T04:53:00.971Z,69.18
2023-04-29T04:54:00.914Z,69.12
2023-04-29T04:55:00.900Z,69.21
2023-04-29T04:56:00.941Z,69.26
2023-04-29T04:57:00.961Z,69.08
2023-04-29T04:58:00.984Z,69.11
2023-04-29T04:59:01.003Z,69.11
2023-04-29T05:00:01.005Z,69.01
2023-04-29T05:01:01.132Z,69.02
2023-04-29T05:02:01.581Z,69.12
2023-04-29T05:03:01.170Z,69.23
2023-04-29T05:04:01.325Z,69.42
2023-04-29T05:05:01.181Z,69.51
2023-04-29T05:06:01.206Z,69.56
2023-04-29T05:07:01.536Z,69.60
2023-04-29T05:08:01.201Z,69.48
2023-04-29T05:09:01.226Z,69.57
2023-04-29T05:10:01.246Z,69.46
2023-04-29T05:11:01.270Z,69.35
2023-04-29T05:12:01.302Z,69.54
2023-04-29T05:13:01.354Z,69.87
2023-04-29T05:14:01.327Z,69.95
2023-04-29T05:15:01.331Z,70.14
2023-04-29T05:16:01.335Z,70.00
2023-04-29T05:17:01.550Z,69.93
2023-04-29T05:18:01.438Z,69.94
2023-04-29T05:19:01.393Z,69.72
2023-04-29T05:20:01.419Z,69.53
2023-04-29T05:21:01.408Z,69.60
2023-04-29T05:22:01.410Z,69.49
2023-04-29T05:23:01.423Z,69.31
2023-04-29T05:24:01.434Z,69.31
2023-04-29T05:25:01.392Z,69.24
2023-04-29T05:26:01.444Z,69.33
2023-04-29T05:27:01.410Z,69.33
2023-04-29T05:28:02.033Z,69.25
2023-04-29T05:29:01.423Z,69.24
2023-04-29T05:30:01.449Z,69.23
2023-04-29T05:31:01.447Z,69.11
2023-04-29T05:32:01.448Z,68.94
2023-04-29T05:33:01.457Z,69.24
2023-04-29T05:34:01.456Z,69.29
2023-04-29T05:35:01.428Z,69.23
2023-04-29T05:36:01.439Z,69.33
2023-04-29T05:37:01.416Z,69.25
2023-04-29T05:38:01.518Z,69.27
2023-04-29T05:39:01.385Z,69.21
2023-04-29T05:40:01.437Z,69.35
2023-04-29T05:41:01.446Z,69.43
2023-04-29T05:42:01.453Z,69.25
2023-04-29T05:43:01.456Z,69.30
2023-04-29T05:44:01.430Z,69.31
2023-04-29T05:45:01.492Z,69.30
2023-04-29T05:46:01.579Z,69.24
2023-04-29T05:47:01.558Z,69.24
2023-04-29T05:48:02.101Z,69.41
2023-04-29T05:49:01.632Z,69.39
2023-04-29T05:50:01.689Z,69.57
2023-04-29T05:51:01.689Z,69.47
2023-04-29T05:52:01.718Z,69.61
2023-04-29T05:53:01.734Z,69.29
2023-04-29T05:54:01.745Z,69.04
2023-04-29T05:55:01.752Z,68.95
2023-04-29T05:56:01.793Z,68.90
2023-04-29T05:57:01.802Z,69.00
2023-04-29T05:58:02.042Z,69.13
2023-04-29T05:59:01.933Z,68.89
2023-04-29T06:00:01.929Z,68.76
2023-04-29T06:01:01.992Z,68.76
2023-04-29T06:02:02.045Z,68.75
2023-04-29T06:03:02.191Z,68.54
2023-04-29T06:04:02.323Z,68.71
2023-04-29T06:05:02.338Z,68.62
2023-04-29T06:06:02.401Z,68.58
2023-04-29T06:07:02.167Z,68.60
2023-04-29T06:08:02.197Z,68.72
2023-04-29T06:09:03.152Z,69.05
2023-04-29T06:10:02.295Z,68.76
2023-04-29T06:11:02.366Z,68.72
2023-04-29T06:12:02.417Z,68.81
2023-04-29T06:13:02.544Z,68.83
2023-04-29T06:14:02.552Z,68.66
2023-04-29T06:15:02.667Z,68.55
2023-04-29T06:16:02.683Z,68.40
2023-04-29T06:17:02.711Z,68.66
2023-04-29T06:18:03.087Z,68.87
2023-04-29T06:19:02.819Z,68.82
2023-04-29T06:20:02.902Z,69.10
2023-04-29T06:21:02.942Z,69.33
2023-04-29T06:22:02.973Z,69.16
2023-04-29T06:23:03.043Z,69.31
2023-04-29T06:24:03.056Z,69.26
2023-04-29T06:25:03.145Z,69.35
2023-04-29T06:26:03.179Z,69.20
2023-04-29T06:27:03.236Z,68.77
2023-04-29T06:28:03.543Z,68.53
2023-04-29T06:29:03.389Z,68.69
2023-04-29T06:30:03.384Z,68.64
2023-04-29T06:31:03.452Z,68.57
2023-04-29T06:32:03.563Z,68.45
2023-04-29T06:33:03.590Z,68.38
2023-04-29T06:34:03.588Z,68.46
2023-04-29T06:35:03.632Z,68.45
2023-04-29T06:36:03.689Z,68.45
2023-04-29T06:37:03.725Z,68.51
2023-04-29T06:38:04.051Z,68.37
2023-04-29T06:39:03.779Z,68.53
2023-04-29T06:40:03.792Z,68.46
2023-04-29T06:41:03.799Z,67.97
2023-04-29T06:42:03.825Z,67.94
2023-04-29T06:43:03.814Z,67.83
2023-04-29T06:44:03.872Z,67.78
2023-04-29T06:45:03.817Z,67.84
2023-04-29T06:46:03.832Z,68.02
2023-04-29T06:47:03.919Z,67.85
2023-04-29T06:48:04.090Z,67.33
2023-04-29T06:49:03.933Z,67.36
2023-04-29T06:50:03.962Z,67.49
2023-04-29T06:51:03.941Z,67.59
2023-04-29T06:52:03.971Z,67.50
2023-04-29T06:53:04.046Z,67.35
2023-04-29T06:54:04.080Z,67.31
2023-04-29T06:55:04.203Z,67.29
2023-04-29T06:56:04.213Z,67.23
2023-04-29T06:57:04.317Z,67.62
2023-04-29T06:58:04.575Z,67.64
2023-04-29T06:59:04.377Z,67.64
2023-04-29T07:00:04.386Z,67.51
2023-04-29T07:01:04.526Z,67.22
2023-04-29T07:02:04.569Z,67.18
2023-04-29T07:03:05.144Z,67.02
2023-04-29T07:04:04.693Z,66.41
2023-04-29T07:05:04.684Z,66.04
2023-04-29T07:06:04.763Z,66.61
2023-04-29T07:07:04.815Z,66.29
2023-04-29T07:08:04.828Z,66.59
2023-04-29T07:09:04.854Z,67.23
2023-04-29T07:10:04.916Z,67.50
2023-04-29T07:11:04.966Z,67.00
2023-04-29T07:12:05.000Z,66.56
2023-04-29T07:13:05.083Z,66.39
2023-04-29T07:14:05.100Z,66.10
2023-04-29T07:15:05.150Z,66.00
2023-04-29T07:16:05.228Z,66.45
2023-04-29T07:17:05.307Z,66.05
2023-04-29T07:18:05.611Z,65.90
2023-04-29T07:19:05.408Z,65.93
2023-04-29T07:20:05.509Z,65.69
2023-04-29T07:21:05.533Z,65.84
2023-04-29T07:22:05.608Z,66.03
2023-04-29T07:23:06.076Z,65.76
2023-04-29T07:24:05.749Z,65.91
2023-04-29T07:25:05.778Z,65.61
2023-04-29T07:26:05.860Z,65.45
2023-04-29T07:27:05.923Z,65.51
2023-04-29T07:28:06.006Z,65.82
2023-04-29T07:29:06.023Z,65.90
2023-04-29T07:30:06.128Z,66.37
2023-04-29T07:31:06.183Z,66.50
2023-04-29T07:32:06.197Z,66.84
2023-04-29T07:33:06.347Z,65.71
2023-04-29T07:34:06.332Z,65.41
2023-04-29T07:35:06.412Z,65.26
2023-04-29T07:36:06.435Z,65.07
2023-04-29T07:37:06.529Z,65.51
2023-04-29T07:38:06.579Z,65.39
2023-04-29T07:39:06.609Z,65.46
2023-04-29T07:40:06.672Z,64.93
2023-04-29T07:41:06.722Z,64.85
2023-04-29T07:42:06.804Z,64.94
2023-04-29T07:43:06.882Z,64.99
2023-04-29T07:44:06.920Z,64.59
2023-04-29T07:45:06.994Z,64.70
2023-04-29T07:46:07.055Z,64.73
2023-04-29T07:47:07.065Z,64.62
2023-04-29T07:48:07.580Z,64.55
2023-04-29T07:49:07.186Z,64.15
2023-04-29T07:50:07.221Z,64.12
2023-04-29T07:51:07.231Z,63.91
2023-04-29T07:52:07.281Z,64.05
2023-04-29T07:53:07.248Z,63.85
2023-04-29T07:54:07.288Z,63.78
2023-04-29T07:55:07.303Z,62.92
2023-04-29T07:56:07.304Z,63.07
2023-04-29T07:57:07.309Z,63.04
2023-04-29T07:58:07.312Z,62.88
2023-04-29T07:59:07.317Z,63.02
2023-04-29T08:00:07.310Z,63.31
2023-04-29T08:01:07.299Z,63.22
2023-04-29T08:02:07.309Z,62.81
2023-04-29T08:03:07.651Z,62.47
2023-04-29T08:04:07.575Z,62.48
2023-04-29T08:05:07.728Z,62.64
2023-04-29T08:06:07.477Z,62.53
2023-04-29T08:07:07.435Z,62.69
2023-04-29T08:08:07.578Z,62.52
2023-04-29T08:09:07.545Z,62.71
2023-04-29T08:10:07.609Z,62.82
2023-04-29T08:11:07.641Z,61.92
2023-04-29T08:12:07.710Z,61.73
2023-04-29T08:13:07.722Z,62.07
2023-04-29T08:14:07.760Z,62.38
2023-04-29T08:15:09.672Z,61.32
2023-04-29T08:16:07.864Z,61.68
2023-04-29T08:17:07.870Z,62.76
2023-04-29T08:18:07.908Z,62.54
2023-04-29T08:19:07.896Z,62.95
2023-04-29T08:20:07.992Z,62.08
2023-04-29T08:21:07.998Z,61.95
2023-04-29T08:22:08.044Z,61.95
2023-04-29T08:23:08.095Z,61.95
2023-04-29T08:24:08.096Z,61.25
2023-04-29T08:25:08.133Z,61.33
2023-04-29T08:26:08.124Z,61.35
2023-04-29T08:27:08.156Z,61.54
2023-04-29T08:28:08.201Z,61.15
2023-04-29T08:29:08.176Z,61.51
2023-04-29T08:30:08.180Z,61.34
2023-04-29T08:31:08.250Z,61.53
2023-04-29T08:32:08.241Z,61.94
2023-04-29T08:33:08.237Z,62.18
2023-04-29T08:34:08.248Z,62.38
2023-04-29T08:35:08.244Z,62.54
2023-04-29T08:36:08.232Z,62.92
2023-04-29T08:37:08.204Z,63.63
2023-04-29T08:38:08.188Z,62.33
2023-04-29T08:39:08.222Z,62.19
2023-04-29T08:40:08.206Z,61.85
2023-04-29T08:41:08.230Z,62.27
2023-04-29T08:42:08.233Z,62.07
2023-04-29T08:43:08.614Z,62.04
2023-04-29T08:44:08.266Z,61.84
2023-04-29T08:45:08.349Z,62.26
2023-04-29T08:46:08.362Z,62.00
2023-04-29T08:47:08.228Z,61.77
2023-04-29T08:48:08.355Z,60.78
2023-04-29T08:49:08.355Z,60.87
2023-04-29T08:50:08.353Z,60.54
2023-04-29T08:51:08.367Z,61.04
2023-04-29T08:52:08.416Z,61.28
2023-04-29T08:53:08.584Z,61.24
2023-04-29T08:54:08.532Z,61.05
2023-04-29T08:55:08.561Z,61.34
2023-04-29T08:56:08.646Z,60.69
2023-04-29T08:57:08.709Z,60.66
2023-04-29T08:58:08.754Z,60.61
2023-04-29T08:59:08.848Z,59.71
2023-04-29T09:00:08.829Z,58.80
2023-04-29T09:01:08.875Z,59.10
2023-04-29T09:02:08.869Z,59.08
2023-04-29T09:03:08.944Z,59.16
2023-04-29T09:04:08.966Z,59.00
2023-04-29T09:05:09.022Z,58.47
2023-04-29T09:06:09.231Z,57.45
2023-04-29T09:07:09.134Z,58.02
2023-04-29T09:08:09.188Z,59.79
2023-04-29T09:09:09.201Z,59.49
2023-04-29T09:10:09.242Z,59.69
2023-04-29T09:11:09.238Z,58.45
2023-04-29T09:12:09.262Z,58.16
2023-04-29T09:13:09.586Z,58.08
2023-04-29T09:14:09.337Z,57.87
2023-04-29T09:15:09.302Z,57.50
2023-04-29T09:16:09.400Z,57.91
2023-04-29T09:17:09.356Z,58.01
2023-04-29T09:18:09.381Z,57.81
2023-04-29T09:19:09.371Z,56.60
2023-04-29T09:20:09.399Z,56.12
2023-04-29T09:21:09.389Z,55.72
2023-04-29T09:22:09.339Z,56.11
2023-04-29T09:23:09.372Z,55.64
2023-04-29T09:24:09.357Z,55.75
2023-04-29T09:25:09.422Z,55.98
2023-04-29T09:26:09.445Z,56.19
2023-04-29T09:27:09.472Z,56.36
2023-04-29T09:28:09.532Z,54.68
2023-04-29T09:29:09.560Z,55.11
2023-04-29T09:30:09.645Z,56.27
2023-04-29T09:31:09.732Z,56.57
2023-04-29T09:32:09.772Z,55.99
2023-04-29T09:33:09.849Z,56.28
2023-04-29T09:34:09.970Z,55.71
2023-04-29T09:35:09.916Z,55.32
2023-04-29T09:36:09.936Z,55.83
2023-04-29T09:37:10.014Z,55.27
2023-04-29T09:38:10.083Z,55.81
2023-04-29T09:39:10.128Z,55.71
2023-04-29T09:40:10.116Z,56.02
2023-04-29T09:41:10.138Z,55.82
2023-04-29T09:42:10.178Z,55.74
2023-04-29T09:43:10.198Z,55.04
2023-04-29T09:44:10.245Z,55.28
2023-04-29T09:45:10.287Z,56.18
2023-04-29T09:46:10.400Z,55.95
2023-04-29T09:47:10.407Z,56.33
2023-04-29T09:48:10.595Z,56.57
2023-04-29T09:49:10.342Z,55.20
2023-04-29T09:50:10.335Z,54.96
2023-04-29T09:51:10.353Z,56.00
2023-04-29T09:52:10.369Z,54.75
2023-04-29T09:53:10.619Z,54.88
2023-04-29T09:54:10.427Z,53.76
2023-04-29T09:55:10.401Z,54.19
2023-04-29T09:56:10.435Z,54.12
2023-04-29T09:57:10.452Z,54.59
2023-04-29T09:58:10.466Z,53.72
2023-04-29T09:59:10.459Z,54.08
2023-04-29T10:00:10.518Z,53.91
2023-04-29T10:01:10.853Z,53.76
2023-04-29T10:02:10.558Z,54.04
2023-04-29T10:03:10.633Z,54.17
2023-04-29T10:04:10.600Z,54.33
2023-04-29T10:05:10.681Z,54.73
2023-04-29T10:06:10.664Z,54.98
2023-04-29T10:07:10.724Z,55.29
2023-04-29T10:08:11.110Z,55.18
2023-04-29T10:09:10.850Z,55.38
2023-04-29T10:10:10.911Z,56.09
2023-04-29T10:11:10.918Z,56.19
2023-04-29T10:12:10.959Z,56.28
2023-04-29T10:13:10.976Z,55.38
2023-04-29T10:14:11.009Z,55.14
2023-04-29T10:15:11.042Z,55.28
2023-04-29T10:16:11.097Z,54.94
2023-04-29T10:17:11.103Z,55.33
2023-04-29T10:18:11.164Z,54.53
2023-04-29T10:19:11.137Z,54.61
2023-04-29T10:20:11.142Z,53.95
2023-04-29T10:21:11.135Z,54.15
2023-04-29T10:22:11.184Z,54.52
2023-04-29T10:23:11.186Z,54.10
2023-04-29T10:24:11.173Z,55.13
2023-04-29T10:25:11.199Z,54.95
2023-04-29T10:26:11.207Z,54.37
2023-04-29T10:27:11.183Z,53.46
2023-04-29T10:28:11.172Z,54.04
2023-04-29T10:29:11.231Z,55.03
2023-04-29T10:30:11.232Z,55.61
2023-04-29T10:31:11.241Z,54.62
2023-04-29T10:32:11.270Z,54.49
2023-04-29T10:33:11.342Z,54.49
2023-04-29T10:34:11.381Z,55.38
2023-04-29T10:35:11.424Z,54.64
2023-04-29T10:36:11.468Z,55.42
2023-04-29T10:37:11.530Z,55.51
2023-04-29T10:38:11.586Z,53.63
2023-04-29T10:39:11.670Z,54.05
2023-04-29T10:40:11.763Z,54.44
2023-04-29T10:41:11.825Z,53.61
2023-04-29T10:42:11.880Z,53.11
2023-04-29T10:43:11.935Z,53.52
2023-04-29T10:44:11.950Z,54.46
2023-04-29T10:45:12.009Z,54.39
2023-04-29T10:46:12.076Z,54.73
2023-04-29T10:47:12.123Z,55.15
2023-04-29T10:48:12.190Z,54.04
2023-04-29T10:49:12.191Z,53.53
2023-04-29T10:50:12.249Z,53.96
2023-04-29T10:51:12.350Z,53.69
2023-04-29T10:52:12.332Z,52.92
2023-04-29T10:53:12.364Z,52.83
2023-04-29T10:54:12.344Z,52.94
2023-04-29T10:55:12.354Z,53.09
2023-04-29T10:56:12.338Z,53.48
2023-04-29T10:57:12.500Z,53.41
2023-04-29T10:58:12.408Z,53.30
2023-04-29T10:59:12.418Z,52.55
2023-04-29T11:00:14.283Z,53.11
2023-04-29T11:01:12.456Z,52.04
2023-04-29T11:02:12.416Z,51.89
2023-04-29T11:03:12.536Z,52.41
2023-04-29T11:04:12.464Z,51.91
2023-04-29T11:05:12.595Z,52.69
2023-04-29T11:06:12.461Z,52.66
2023-04-29T11:07:12.456Z,51.78
2023-04-29T11:08:12.496Z,51.09
2023-04-29T11:09:12.554Z,51.79
2023-04-29T11:10:12.481Z,50.18
2023-04-29T11:11:12.508Z,50.93
2023-04-29T11:12:12.505Z,50.45
2023-04-29T11:13:12.665Z,50.11
2023-04-29T11:14:12.542Z,49.97
2023-04-29T11:15:12.569Z,50.27
2023-04-29T11:16:12.635Z,50.35
2023-04-29T11:17:12.600Z,50.65
2023-04-29T11:18:12.644Z,50.32
2023-04-29T11:19:12.620Z,50.16
2023-04-29T11:20:12.646Z,49.43
2023-04-29T11:21:12.689Z,50.34
2023-04-29T11:22:12.621Z,50.01
2023-04-29T11:23:12.630Z,49.46
2023-04-29T11:24:12.656Z,50.14
2023-04-29T11:25:12.639Z,49.91
2023-04-29T11:26:12.658Z,49.61
2023-04-29T11:27:12.706Z,49.97
2023-04-29T11:28:12.711Z,50.76
2023-04-29T11:29:12.670Z,51.69
2023-04-29T11:30:12.745Z,52.95
2023-04-29T11:31:12.783Z,52.68
2023-04-29T11:32:12.764Z,53.34
2023-04-29T11:33:12.761Z,53.48
2023-04-29T11:34:12.768Z,53.60
2023-04-29T11:35:12.731Z,53.17
2023-04-29T11:36:12.766Z,50.21
2023-04-29T11:37:12.787Z,48.96
2023-04-29T11:38:12.812Z,49.27
2023-04-29T11:39:12.843Z,49.85
2023-04-29T11:40:12.844Z,50.64
2023-04-29T11:41:12.866Z,48.62
2023-04-29T11:42:12.951Z,47.25
2023-04-29T11:43:13.157Z,47.62
2023-04-29T11:44:13.023Z,49.53
2023-04-29T11:45:13.093Z,49.81
2023-04-29T11:46:13.227Z,48.67
2023-04-29T11:47:13.148Z,50.19
2023-04-29T11:48:13.264Z,49.01
2023-04-29T11:49:13.259Z,48.60
2023-04-29T11:50:13.351Z,50.10
2023-04-29T11:51:13.385Z,51.03
2023-04-29T11:52:13.450Z,49.99
2023-04-29T11:53:13.498Z,50.41
2023-04-29T11:54:13.536Z,50.61
2023-04-29T11:55:13.613Z,50.35
2023-04-29T11:56:13.655Z,49.54
2023-04-29T11:57:13.649Z,50.59
2023-04-29T11:58:13.668Z,50.21
2023-04-29T11:59:13.672Z,49.66
2023-04-29T12:00:13.949Z,49.68
2023-04-29T12:01:13.748Z,49.84
2023-04-29T12:02:13.793Z,49.10
2023-04-29T12:03:13.955Z,49.02
2023-04-29T12:04:14.069Z,48.55
2023-04-29T12:05:14.150Z,48.27
2023-04-29T12:06:13.881Z,47.81
2023-04-29T12:07:13.922Z,48.45
2023-04-29T12:08:13.940Z,47.50
2023-04-29T12:09:14.012Z,47.06
2023-04-29T12:10:14.151Z,46.65
2023-04-29T12:11:14.070Z,46.19
2023-04-29T12:12:14.104Z,45.16
2023-04-29T12:13:14.156Z,45.38
2023-04-29T12:14:14.188Z,44.80
2023-04-29T12:15:14.225Z,44.32
2023-04-29T12:16:14.339Z,44.16
2023-04-29T12:17:14.333Z,44.07
2023-04-29T12:18:14.380Z,43.39
2023-04-29T12:19:14.372Z,43.65
2023-04-29T12:20:14.441Z,43.21
2023-04-29T12:21:14.468Z,43.94
2023-04-29T12:22:14.529Z,43.78
2023-04-29T12:23:14.557Z,42.61
2023-04-29T12:24:14.629Z,43.77
2023-04-29T12:25:14.688Z,42.42
2023-04-29T12:26:14.756Z,43.26
2023-04-29T12:27:14.782Z,41.70
2023-04-29T12:28:14.814Z,42.50
2023-04-29T12:29:14.827Z,42.41
2023-04-29T12:30:14.863Z,41.86
2023-04-29T12:31:14.909Z,41.74
2023-04-29T12:32:14.928Z,41.59
2023-04-29T12:33:15.215Z,42.39
2023-04-29T12:34:14.893Z,41.50
2023-04-29T12:35:14.909Z,41.93
2023-04-29T12:36:14.942Z,42.12
2023-04-29T12:37:14.945Z,40.89
2023-04-29T12:38:14.961Z,40.96
2023-04-29T12:39:14.943Z,41.26
2023-04-29T12:40:14.994Z,41.73
2023-04-29T12:41:15.011Z,41.99
2023-04-29T12:42:15.044Z,40.72
2023-04-29T12:43:15.076Z,41.03
2023-04-29T12:44:15.145Z,40.51
2023-04-29T12:45:15.064Z,40.65
2023-04-29T12:46:15.238Z,41.27
2023-04-29T12:47:15.296Z,41.20
2023-04-29T12:48:25.360Z,40.94
2023-04-29T12:49:16.083Z,41.50
2023-04-29T12:50:15.102Z,41.64
2023-04-29T12:51:15.070Z,41.67
2023-04-29T12:52:15.078Z,40.75
2023-04-29T12:53:15.070Z,40.97